Time;durP1;ratioP1;P1;durP2;ratioP2;P2;SDS_P1;SDS_P2;PMS_P1;PMS_P2;Temp;Humidity;BMP_temperature;BMP_pressure;BME280_temperature;BME280_humidity;BME280_pressure;Samples;Min_cycle;Max_cycle;Signal;HPM_P1;HPM_P2
2022/11/17 00:01:23;;;;;;;6.60;3.55;;;;;;;6.82;95.49;99851.91;5095828;27;20067;-67
2022/11/17 00:03:51;;;;;;;8.48;4.68;;;;;;;6.91;94.82;99847.97;5084725;27;20039;-67
2022/11/17 00:06:20;;;;;;;7.47;4.22;;;;;;;6.85;94.92;99853.50;5066255;27;20048;-66
2022/11/17 00:08:47;;;;;;;8.70;4.03;;;;;;;6.60;95.61;99848.69;5081136;27;20417;-66
2022/11/17 00:11:14;;;;;;;8.95;4.63;;;;;;;6.97;94.45;99858.09;5085116;27;20073;-67
2022/11/17 00:16:24;;;;;;;6.82;4.03;;;;;;;6.54;95.78;99861.97;5084184;27;20122;-67
2022/11/17 00:21:36;;;;;;;8.40;4.63;;;;;;;6.26;97.00;99851.22;5091867;27;20054;-67
2022/11/17 00:24:03;;;;;;;8.00;4.32;;;;;;;6.34;97.38;99854.31;5077793;27;20047;-67
2022/11/17 00:26:32;;;;;;;5.35;3.38;;;;;;;6.62;96.12;99840.78;5067357;27;20048;-67
2022/11/17 00:29:00;;;;;;;9.98;5.75;;;;;;;6.63;95.23;99842.47;5072115;27;20043;-66
2022/11/17 00:34:16;;;;;;;9.93;6.05;;;;;;;6.55;96.23;99842.84;5081086;27;20569;-67
2022/11/17 00:36:45;;;;;;;9.27;4.95;;;;;;;6.56;96.04;99841.94;5041075;28;20041;-67
2022/11/17 00:39:13;;;;;;;8.05;4.60;;;;;;;6.47;97.62;99837.16;5058408;28;20045;-66
2022/11/17 00:41:40;;;;;;;11.23;5.82;;;;;;;6.62;97.02;99838.16;5050660;28;20052;-66
2022/11/17 00:44:07;;;;;;;10.20;6.22;;;;;;;6.52;96.19;99834.34;5059087;28;20048;-66
2022/11/17 00:46:35;;;;;;;10.05;5.97;;;;;;;6.68;95.49;99822.25;5065495;27;20047;-67
2022/11/17 00:49:03;;;;;;;8.30;5.32;;;;;;;6.54;96.14;99820.31;5059274;28;20068;-67
2022/11/17 00:51:29;;;;;;;10.85;6.10;;;;;;;6.69;95.17;99821.31;5068897;27;20055;-67
2022/11/17 00:53:57;;;;;;;6.63;3.97;;;;;;;6.45;95.29;99833.81;5070332;27;20446;-67
2022/11/17 00:56:24;;;;;;;7.60;4.45;;;;;;;6.02;96.93;99829.84;5055534;28;20058;-67
2022/11/17 00:58:51;;;;;;;5.18;3.05;;;;;;;5.89;97.88;99820.91;5053077;27;20551;-67
2022/11/17 01:01:18;;;;;;;8.95;5.40;;;;;;;6.07;96.84;99824.38;5080412;27;20052;-67
2022/11/17 01:03:44;;;;;;;10.30;4.60;;;;;;;6.01;97.21;99827.28;5074936;27;20405;-67
2022/11/17 01:06:12;;;;;;;9.30;4.53;;;;;;;5.93;97.14;99826.81;5059504;28;20395;-67
2022/11/17 01:08:39;;;;;;;9.75;5.13;;;;;;;6.10;96.33;99819.03;5066496;27;20040;-67
2022/11/17 01:11:10;;;;;;;7.65;4.25;;;;;;;5.84;96.93;99825.44;5070565;27;20044;-67
2022/11/17 01:13:37;;;;;;;8.30;4.38;;;;;;;5.67;97.02;99830.59;5069977;28;20457;-67
2022/11/17 01:16:06;;;;;;;6.03;3.20;;;;;;;5.68;97.31;99812.31;5069043;28;20044;-67
2022/11/17 01:18:33;;;;;;;9.13;5.45;;;;;;;5.64;98.08;99813.38;5059228;28;20036;-66
2022/11/17 01:21:05;;;;;;;10.20;4.97;;;;;;;5.79;97.79;99814.44;5068926;28;20081;-66
2022/11/17 01:23:32;;;;;;;9.45;4.82;;;;;;;5.89;97.40;99810.50;5078793;27;20047;-67
2022/11/17 01:26:03;;;;;;;9.75;5.30;;;;;;;5.99;96.42;99805.69;5060027;27;20044;-67
2022/11/17 01:28:31;;;;;;;7.43;4.53;;;;;;;5.99;96.44;99808.28;5069755;27;20055;-67
2022/11/17 01:31:02;;;;;;;9.57;4.65;;;;;;;6.24;95.01;99809.66;5081708;27;20047;-67
2022/11/17 01:33:29;;;;;;;10.15;5.65;;;;;;;6.09;96.15;99796.56;5079840;27;20051;-67
2022/11/17 01:35:55;;;;;;;9.02;4.53;;;;;;;5.86;97.22;99806.28;5086251;27;20189;-66
2022/11/17 01:38:22;;;;;;;9.23;5.35;;;;;;;6.10;96.53;99803.41;5068780;28;20052;-66
2022/11/17 01:40:48;;;;;;;8.38;4.95;;;;;;;6.28;95.97;99798.16;5058164;27;20040;-66
2022/11/17 01:43:15;;;;;;;14.13;6.05;;;;;;;6.39;95.80;99796.81;5068018;27;20056;-66
2022/11/17 01:45:43;;;;;;;10.82;5.50;;;;;;;6.33;94.83;99795.34;5069982;27;20055;-67
2022/11/17 01:48:13;;;;;;;13.15;5.60;;;;;;;6.36;95.32;99777.81;5058223;28;20044;-67
2022/11/17 01:50:42;;;;;;;13.25;6.63;;;;;;;6.27;95.89;99780.03;5078542;27;20047;-67
2022/11/17 01:53:14;;;;;;;12.30;5.88;;;;;;;6.20;96.70;99768.25;5063715;27;20048;-67
2022/11/17 01:55:44;;;;;;;11.80;5.60;;;;;;;6.36;95.65;99774.34;5048570;28;20052;-67
2022/11/17 01:58:15;;;;;;;9.52;4.93;;;;;;;6.54;93.66;99781.25;5055850;28;20052;-66
2022/11/17 02:00:43;;;;;;;10.68;5.85;;;;;;;6.43;93.95;99765.31;5069210;27;20044;-66
2022/11/17 02:03:10;;;;;;;9.27;5.20;;;;;;;5.98;95.79;99773.66;5085894;27;20044;-66
2022/11/17 02:05:43;;;;;;;7.20;4.13;;;;;;;5.94;96.29;99766.06;5069193;27;20047;-67
2022/11/17 02:08:11;;;;;;;10.45;5.43;;;;;;;5.73;96.91;99768.72;5059703;27;20067;-67
2022/11/17 02:10:38;;;;;;;8.68;4.32;;;;;;;5.74;97.30;99765.22;5067260;28;20039;-66
2022/11/17 02:13:05;;;;;;;8.80;4.45;;;;;;;5.55;97.87;99764.38;5069525;28;20044;-66
2022/11/17 02:15:31;;;;;;;10.40;5.25;;;;;;;5.75;97.02;99756.50;5063201;28;20048;-66
2022/11/17 02:18:00;;;;;;;8.93;5.13;;;;;;;5.69;97.76;99763.75;5071994;28;20097;-66
2022/11/17 02:20:41;;;;;;;8.15;5.00;;;;;;;5.74;97.66;99754.81;5076450;28;20407;-67
2022/11/17 02:23:26;;;;;;;10.10;5.13;;;;;;;5.88;97.08;99756.78;5066754;27;20047;-67
2022/11/17 02:26:10;;;;;;;10.02;5.38;;;;;;;5.52;98.42;99748.94;5048198;28;20404;-67
2022/11/17 02:28:49;;;;;;;10.02;5.45;;;;;;;5.66;98.69;99746.53;5067923;28;20408;-67
2022/11/17 02:31:23;;;;;;;10.48;5.82;;;;;;;5.88;97.32;99754.16;5069721;27;20073;-67
2022/11/17 02:33:56;;;;;;;11.38;5.68;;;;;;;5.64;97.73;99758.75;5081666;27;20047;-66
2022/11/17 02:36:32;;;;;;;8.88;5.22;;;;;;;5.85;97.12;99747.34;5057326;27;20438;-67
2022/11/17 02:39:09;;;;;;;11.02;5.15;;;;;;;5.68;98.03;99743.84;5075429;28;20566;-67
2022/11/17 02:41:42;;;;;;;12.15;6.28;;;;;;;5.71;97.97;99747.16;5085209;28;20044;-67
2022/11/17 02:44:15;;;;;;;14.65;6.57;;;;;;;5.68;97.82;99743.84;5084659;28;20039;-67
2022/11/17 02:46:45;;;;;;;13.18;6.57;;;;;;;5.76;98.18;99744.34;5085208;27;20036;-66
2022/11/17 02:49:18;;;;;;;11.52;6.90;;;;;;;5.69;98.34;99738.56;5084545;28;20063;-67
2022/11/17 02:51:48;;;;;;;11.63;6.65;;;;;;;5.64;98.37;99737.97;5073519;28;20234;-67
2022/11/17 02:54:15;;;;;;;16.17;7.25;;;;;;;5.50;98.68;99729.13;5082678;28;20039;-66
2022/11/17 02:56:42;;;;;;;15.02;7.90;;;;;;;5.42;99.34;99721.69;5076240;28;20496;-67
2022/11/17 02:59:13;;;;;;;13.70;7.32;;;;;;;5.51;99.12;99723.84;5085916;27;20047;-66
2022/11/17 03:02:30;;;;;;;11.15;5.55;;;;;;;5.59;99.18;99716.53;5092109;27;20056;-66
2022/11/17 03:05:07;;;;;;;13.70;7.88;;;;;;;5.59;99.52;99708.72;5082864;27;20411;-66
2022/11/17 03:07:58;;;;;;;10.73;6.15;;;;;;;5.82;96.92;99718.03;5062451;28;20048;-66
2022/11/17 03:10:35;;;;;;;14.18;7.70;;;;;;;5.62;97.49;99713.78;5074732;27;20059;-66
2022/11/17 03:13:12;;;;;;;13.60;7.60;;;;;;;5.68;97.19;99710.06;5084881;27;20411;-66
2022/11/17 03:15:48;;;;;;;12.98;7.57;;;;;;;5.68;96.75;99713.50;5085130;27;20044;-66
2022/11/17 03:18:20;;;;;;;14.35;6.72;;;;;;;5.29;97.55;99704.97;5083680;28;20056;-66
2022/11/17 03:20:56;;;;;;;12.43;6.80;;;;;;;5.18;97.42;99710.66;5093811;27;20044;-66
2022/11/17 03:23:30;;;;;;;14.80;8.77;;;;;;;5.07;96.93;99706.84;5094333;28;20054;-66
2022/11/17 03:25:59;;;;;;;9.95;5.90;;;;;;;5.28;96.05;99708.50;5082052;28;20040;-67
2022/11/17 03:28:29;;;;;;;13.55;7.90;;;;;;;5.38;95.72;99701.94;5084494;28;20048;-67
2022/11/17 03:30:59;;;;;;;16.13;7.10;;;;;;;5.48;94.85;99700.59;5096272;27;20076;-66
2022/11/17 03:33:28;;;;;;;16.00;8.18;;;;;;;5.43;97.09;99699.97;5105370;27;20070;-66
2022/11/17 03:36:02;;;;;;;16.20;8.88;;;;;;;5.26;97.72;99695.56;5098417;27;20044;-67
2022/11/17 03:38:33;;;;;;;20.48;9.55;;;;;;;5.10;98.83;99694.56;5084691;28;20543;-67
2022/11/17 03:41:03;;;;;;;18.08;9.77;;;;;;;5.15;99.02;99686.56;5076170;28;20397;-66
2022/11/17 03:43:31;;;;;;;15.38;7.18;;;;;;;4.90;99.52;99687.69;5057657;27;20051;-67
2022/11/17 03:46:03;;;;;;;12.15;7.22;;;;;;;4.90;100.00;99697.25;5067347;27;20048;-67
2022/11/17 03:48:36;;;;;;;13.05;7.50;;;;;;;4.87;100.00;99708.63;5046194;28;20567;-67
2022/11/17 03:51:08;;;;;;;21.27;10.63;;;;;;;4.82;100.00;99692.38;5056285;27;20143;-67
2022/11/17 03:53:35;;;;;;;13.05;7.35;;;;;;;4.86;99.86;99687.91;5076742;27;20514;-66
2022/11/17 03:56:10;;;;;;;18.90;10.57;;;;;;;4.99;99.71;99677.81;5060613;27;20040;-67
2022/11/17 03:58:44;;;;;;;20.83;10.27;;;;;;;4.91;100.00;99686.75;5068152;27;20045;-67
2022/11/17 04:01:13;;;;;;;24.00;9.77;;;;;;;4.95;99.02;99689.25;5079089;27;20043;-67
2022/11/17 04:03:40;;;;;;;16.27;8.50;;;;;;;4.87;98.54;99726.81;5072503;27;20051;-66
2022/11/17 04:06:07;;;;;;;17.35;8.18;;;;;;;4.65;98.79;99681.06;5069431;27;20040;-67
2022/11/17 04:08:33;;;;;;;13.75;7.60;;;;;;;4.78;98.42;99696.03;5071630;28;20047;-67
2022/11/17 04:16:43;;;;;;;15.95;9.15;;;;;;;5.35;94.65;99696.91;5029924;28;20052;-67
2022/11/17 04:19:09;;;;;;;18.23;9.43;;;;;;;5.46;94.58;99693.78;5031360;28;20041;-69
2022/11/17 04:21:36;;;;;;;15.88;9.20;;;;;;;5.34;94.67;99685.66;5080758;27;20494;-67
2022/11/17 04:24:03;;;;;;;28.60;11.80;;;;;;;4.97;96.77;99677.88;5086970;27;20048;-67
2022/11/17 04:29:21;;;;;;;18.90;10.82;;;;;;;4.79;97.03;99668.31;5051958;27;20159;-66
2022/11/17 04:31:49;;;;;;;19.83;11.27;;;;;;;4.58;97.29;99657.13;5064057;27;20506;-67
2022/11/17 04:34:16;;;;;;;22.60;11.73;;;;;;;4.85;96.71;99657.63;5090387;27;20522;-66
2022/11/17 04:36:45;;;;;;;21.02;12.35;;;;;;;4.77;96.72;99659.72;5076952;27;20036;-66
2022/11/17 04:39:13;;;;;;;21.05;10.48;;;;;;;4.65;96.59;99655.97;5069258;28;20047;-66
2022/11/17 04:41:56;;;;;;;18.20;10.15;;;;;;;4.71;96.73;99640.09;5069919;28;20052;-66
2022/11/17 04:44:24;;;;;;;22.33;11.35;;;;;;;4.84;95.50;99625.63;5060099;28;20050;-66
2022/11/17 04:46:53;;;;;;;13.65;8.32;;;;;;;4.50;96.70;99633.28;5063149;27;20412;-66
2022/11/17 04:49:21;;;;;;;19.67;10.13;;;;;;;4.55;97.33;99640.84;5068703;27;20127;-66
2022/11/17 04:51:48;;;;;;;22.73;10.98;;;;;;;4.60;97.13;99631.09;5069925;27;20051;-66
2022/11/17 04:54:17;;;;;;;23.17;11.65;;;;;;;4.62;97.73;99635.31;5077437;27;20067;-65
2022/11/17 04:56:44;;;;;;;20.08;9.43;;;;;;;4.82;95.87;99644.81;5069010;28;20131;-65
2022/11/17 04:59:10;;;;;;;16.77;9.00;;;;;;;4.86;94.62;99643.75;5059757;28;20046;-65
2022/11/17 05:01:37;;;;;;;17.88;10.07;;;;;;;4.71;95.63;99647.88;5065720;27;20051;-65
2022/11/17 05:04:06;;;;;;;18.08;9.57;;;;;;;4.76;95.70;99658.91;5061494;27;20132;-65
2022/11/17 05:06:35;;;;;;;19.88;11.35;;;;;;;4.78;94.73;99643.25;5060174;27;20044;-65
2022/11/17 05:09:04;;;;;;;22.05;9.52;;;;;;;4.64;94.63;99638.69;5069168;27;20054;-66
2022/11/17 05:14:22;;;;;;;23.92;11.02;;;;;;;4.58;95.58;99640.72;5010607;28;20054;-66
2022/11/17 05:17:03;;;;;;;18.67;10.10;;;;;;;4.78;95.23;99640.66;5069496;28;20040;-66
2022/11/17 05:19:33;;;;;;;18.98;11.15;;;;;;;4.50;95.41;99635.88;5058693;28;20048;-66
2022/11/17 05:22:00;;;;;;;23.60;12.80;;;;;;;4.45;96.36;99640.41;5058987;28;20048;-66
2022/11/17 05:24:29;;;;;;;22.23;12.18;;;;;;;4.76;94.87;99642.50;5056509;27;20056;-66
2022/11/17 05:26:56;;;;;;;20.70;11.50;;;;;;;4.51;95.54;99634.94;5061868;28;20503;-66
2022/11/17 05:29:23;;;;;;;23.58;12.57;;;;;;;4.62;95.37;99650.06;5076918;27;20439;-66
2022/11/17 05:31:49;;;;;;;20.45;11.02;;;;;;;4.85;94.33;99636.84;5063814;27;20035;-66
2022/11/17 05:34:17;;;;;;;19.63;11.15;;;;;;;4.77;93.79;99651.94;5088870;27;20055;-67
2022/11/17 05:36:45;;;;;;;20.92;11.35;;;;;;;4.50;95.03;99646.25;5079393;27;20698;-66
2022/11/17 05:39:12;;;;;;;22.40;11.75;;;;;;;4.41;95.75;99642.31;5068414;28;20048;-66
2022/11/17 05:41:39;;;;;;;20.35;10.25;;;;;;;4.32;96.56;99636.69;5086252;28;20742;-66
2022/11/17 05:44:05;;;;;;;17.90;9.38;;;;;;;4.54;95.70;99646.97;5068613;27;20047;-66
2022/11/17 05:46:32;;;;;;;22.70;12.18;;;;;;;4.51;95.47;99615.94;5059513;27;20052;-66
2022/11/17 05:48:59;;;;;;;18.88;9.00;;;;;;;4.58;96.27;99622.56;5067722;27;20040;-66
2022/11/17 05:51:25;;;;;;;24.85;11.77;;;;;;;4.84;94.40;99615.22;5078011;27;20066;-66
2022/11/17 05:53:53;;;;;;;20.67;12.20;;;;;;;4.71;94.24;99608.09;5056723;28;20044;-66
2022/11/17 05:56:30;;;;;;;18.35;10.25;;;;;;;4.71;94.24;99619.31;5063624;28;20055;-66
2022/11/17 05:59:01;;;;;;;22.65;11.57;;;;;;;4.69;94.36;99605.53;5050165;27;20046;-66
2022/11/17 06:01:29;;;;;;;17.20;9.63;;;;;;;4.77;94.25;99606.03;5080823;27;20046;-66
2022/11/17 06:04:01;;;;;;;26.35;14.20;;;;;;;4.60;95.28;99599.94;5088809;27;20047;-66
2022/11/17 06:06:29;;;;;;;18.98;11.07;;;;;;;4.30;96.48;99612.53;5059023;27;20040;-66
2022/11/17 06:08:57;;;;;;;19.80;10.95;;;;;;;4.55;95.66;99615.72;5067976;27;20153;-66
2022/11/17 06:11:23;;;;;;;23.17;12.10;;;;;;;4.99;93.56;99608.50;5068997;27;20063;-66
2022/11/17 06:13:50;;;;;;;19.83;10.88;;;;;;;4.78;94.13;99614.69;5058874;27;20040;-66
2022/11/17 06:16:21;;;;;;;17.70;10.43;;;;;;;4.72;94.04;99614.97;5067037;27;20545;-66
2022/11/17 06:18:51;;;;;;;17.58;9.43;;;;;;;4.73;94.39;99622.69;5068095;27;20562;-66
2022/11/17 06:21:18;;;;;;;25.73;12.15;;;;;;;4.52;94.72;99610.66;5063958;28;20045;-66
2022/11/17 06:23:47;;;;;;;18.75;9.77;;;;;;;4.69;94.13;99605.53;5066872;28;20048;-66
2022/11/17 06:26:15;;;;;;;24.40;11.20;;;;;;;4.70;94.85;99611.59;5044675;28;20048;-66
2022/11/17 06:28:44;;;;;;;21.60;11.23;;;;;;;4.37;95.35;99607.00;5058409;28;20055;-66
2022/11/17 06:31:11;;;;;;;16.63;9.73;;;;;;;4.53;95.48;99598.53;5077967;27;20051;-66
2022/11/17 06:33:37;;;;;;;19.80;10.30;;;;;;;4.78;94.58;99588.72;5057762;27;20055;-66
2022/11/17 06:36:06;;;;;;;22.05;11.15;;;;;;;4.71;94.86;99587.31;5067276;27;20524;-66
2022/11/17 06:38:34;;;;;;;18.25;10.20;;;;;;;4.60;95.14;99589.56;5066743;27;20044;-66
2022/11/17 06:41:01;;;;;;;23.20;9.95;;;;;;;4.59;94.56;99583.53;5066410;28;20132;-66
2022/11/17 06:43:29;;;;;;;18.15;9.20;;;;;;;4.70;95.01;99581.28;5067553;28;20047;-67
2022/11/17 06:45:55;;;;;;;13.90;8.50;;;;;;;4.69;93.96;99579.59;5054132;28;20040;-67
2022/11/17 06:48:25;;;;;;;16.85;8.60;;;;;;;4.60;95.39;99571.38;5057522;28;20047;-66
2022/11/17 06:50:52;;;;;;;20.55;12.38;;;;;;;4.67;95.08;99573.63;5074651;27;20055;-67
2022/11/17 06:53:19;;;;;;;24.27;12.77;;;;;;;4.63;95.01;99579.88;5084085;27;20040;-67
2022/11/17 06:55:46;;;;;;;17.58;10.25;;;;;;;4.75;94.31;99565.50;5060128;27;20051;-68
2022/11/17 06:58:12;;;;;;;19.13;10.60;;;;;;;4.74;94.14;99569.84;5080899;27;20148;-67
2022/11/17 07:00:40;;;;;;;18.33;10.63;;;;;;;4.60;95.14;99576.59;5078057;27;20047;-67
2022/11/17 07:03:09;;;;;;;22.08;11.52;;;;;;;4.55;95.55;99563.81;5077151;27;20043;-67
2022/11/17 07:05:37;;;;;;;17.55;10.05;;;;;;;4.53;95.75;99567.38;5087040;27;20048;-67
2022/11/17 07:08:06;;;;;;;17.52;9.80;;;;;;;4.62;95.37;99559.19;5072432;27;20048;-67
2022/11/17 07:10:33;;;;;;;17.98;10.45;;;;;;;4.59;95.53;99570.53;5053849;27;20056;-67
2022/11/17 07:13:00;;;;;;;25.63;10.68;;;;;;;4.66;95.38;99571.09;5067221;27;20051;-67
2022/11/17 07:15:27;;;;;;;22.83;11.88;;;;;;;4.81;95.15;99562.59;5068246;27;20048;-66
2022/11/17 07:17:54;;;;;;;21.40;11.10;;;;;;;4.63;95.76;99563.44;5056929;27;20058;-66
2022/11/17 07:20:21;;;;;;;21.95;11.20;;;;;;;4.88;94.69;99580.41;5074480;27;20055;-67
2022/11/17 07:22:48;;;;;;;21.13;11.75;;;;;;;4.60;95.25;99581.78;5053909;28;20040;-67
2022/11/17 07:25:15;;;;;;;22.27;10.57;;;;;;;4.86;95.27;99571.03;5037379;28;20603;-65
2022/11/17 07:27:42;;;;;;;15.27;9.05;;;;;;;4.86;94.13;99579.66;5036339;28;20139;-65
2022/11/17 07:30:09;;;;;;;20.92;10.98;;;;;;;5.10;93.82;99563.84;5046791;28;20056;-65
2022/11/17 07:32:36;;;;;;;19.67;11.02;;;;;;;5.23;92.40;99570.97;5036171;28;20057;-65
2022/11/17 07:35:05;;;;;;;20.25;9.60;;;;;;;4.94;93.56;99575.88;5051843;27;20396;-65
2022/11/17 07:37:32;;;;;;;19.45;10.82;;;;;;;4.96;93.52;99576.63;5066922;28;20060;-65
2022/11/17 07:39:59;;;;;;;13.75;7.97;;;;;;;4.75;95.17;99588.84;5077174;27;20035;-65
2022/11/17 07:42:25;;;;;;;16.30;8.40;;;;;;;4.88;95.16;99580.41;5079348;27;20040;-65
2022/11/17 07:44:51;;;;;;;18.02;10.23;;;;;;;5.08;94.06;99581.25;5071510;27;20043;-65
2022/11/17 07:47:18;;;;;;;22.05;9.48;;;;;;;4.74;96.52;99580.22;5060738;27;20055;-66
2022/11/17 07:49:44;;;;;;;16.48;8.77;;;;;;;4.77;95.80;99577.47;5069421;28;20453;-65
2022/11/17 07:52:12;;;;;;;17.52;9.77;;;;;;;4.82;95.57;99575.53;5054627;27;20055;-65
2022/11/17 07:54:39;;;;;;;18.67;8.98;;;;;;;5.09;94.96;99568.19;5051171;27;20044;-65
2022/11/17 07:57:05;;;;;;;16.60;8.75;;;;;;;5.00;94.72;99563.41;5054417;28;20078;-65
2022/11/17 07:59:32;;;;;;;19.52;9.68;;;;;;;5.13;94.74;99556.75;5058115;28;20503;-65
2022/11/17 08:01:58;;;;;;;19.42;8.88;;;;;;;5.06;94.53;99551.91;5039060;28;20432;-65
2022/11/17 08:04:25;;;;;;;19.70;9.55;;;;;;;5.01;95.04;99551.28;5050279;28;20412;-65
2022/11/17 08:06:51;;;;;;;17.00;6.28;;;;;;;4.98;95.08;99547.06;5066773;27;20048;-65
2022/11/17 08:09:19;;;;;;;20.08;8.82;;;;;;;5.06;94.68;99559.69;5060715;27;20044;-64
2022/11/17 08:11:45;;;;;;;23.67;10.00;;;;;;;5.13;95.06;99553.28;5065498;27;20045;-65
2022/11/17 08:14:12;;;;;;;19.42;8.25;;;;;;;4.95;94.68;99543.78;5051275;28;20048;-65
2022/11/17 08:16:38;;;;;;;13.85;7.07;;;;;;;4.79;96.13;99551.44;5041317;28;20056;-66
2022/11/17 08:19:05;;;;;;;16.63;9.15;;;;;;;4.90;96.11;99538.81;5050400;28;20048;-66
2022/11/17 08:21:32;;;;;;;14.63;8.43;;;;;;;4.89;95.93;99526.72;5051378;28;20045;-66
2022/11/17 08:23:59;;;;;;;21.70;9.95;;;;;;;4.88;96.37;99518.09;5039106;28;20375;-67
2022/11/17 08:26:26;;;;;;;17.08;8.55;;;;;;;5.19;94.81;99521.81;5046363;28;20056;-67
2022/11/17 08:28:53;;;;;;;20.85;8.38;;;;;;;5.02;95.55;99519.19;5066126;27;20415;-67
2022/11/17 08:31:19;;;;;;;13.20;7.93;;;;;;;5.07;95.42;99519.78;5072457;27;20055;-66
2022/11/17 08:33:46;;;;;;;16.63;8.80;;;;;;;4.90;96.65;99516.28;5089590;27;20039;-66
2022/11/17 08:36:12;;;;;;;18.30;9.73;;;;;;;5.07;95.79;99514.59;5090632;27;20048;-66
2022/11/17 08:38:38;;;;;;;12.80;7.20;;;;;;;5.13;95.44;99502.19;5086946;27;20035;-66
2022/11/17 08:41:07;;;;;;;17.25;9.27;;;;;;;5.21;94.72;99513.00;5098384;27;20412;-66
2022/11/17 08:43:35;;;;;;;11.63;6.38;;;;;;;5.02;95.37;99508.81;5070168;27;20047;-66
2022/11/17 08:46:02;;;;;;;15.82;8.05;;;;;;;5.07;96.10;99506.81;5060687;27;20055;-66
2022/11/17 08:48:30;;;;;;;14.63;6.47;;;;;;;5.11;95.42;99509.19;5069714;27;20479;-66
2022/11/17 08:50:57;;;;;;;13.77;7.85;;;;;;;5.26;94.64;99503.22;5068940;27;20048;-66
2022/11/17 08:53:24;;;;;;;15.25;7.30;;;;;;;5.19;94.65;99512.25;5059431;27;20052;-66
2022/11/17 08:55:50;;;;;;;14.25;6.32;;;;;;;5.26;94.78;99512.78;5068496;27;20054;-66
2022/11/17 08:58:17;;;;;;;17.35;7.05;;;;;;;5.17;94.71;99516.69;5069812;27;20135;-65
2022/11/17 09:00:46;;;;;;;10.07;5.22;;;;;;;5.29;94.15;99505.69;5074491;27;20055;-65
2022/11/17 09:03:12;;;;;;;24.00;8.98;;;;;;;5.52;93.43;99516.69;5069102;27;20051;-66
2022/11/17 09:05:40;;;;;;;13.65;7.25;;;;;;;5.45;93.75;99513.56;5069425;27;20058;-66
2022/11/17 09:08:07;;;;;;;16.77;8.77;;;;;;;5.52;93.70;99506.28;5059431;28;20047;-66
2022/11/17 09:10:33;;;;;;;14.65;8.15;;;;;;;5.53;93.90;99505.38;5067459;27;20051;-66
2022/11/17 09:13:00;;;;;;;14.63;7.47;;;;;;;5.51;92.31;99520.19;5074393;28;20113;-66
2022/11/17 09:15:26;;;;;;;18.17;8.07;;;;;;;5.54;93.11;99494.91;5059538;28;20533;-66
2022/11/17 09:17:54;;;;;;;13.77;5.97;;;;;;;5.33;93.77;99509.81;5067889;28;20063;-66
2022/11/17 09:20:21;;;;;;;14.38;6.93;;;;;;;5.38;93.27;99513.03;5069086;27;20036;-66
2022/11/17 09:22:47;;;;;;;11.15;6.07;;;;;;;5.43;93.89;99518.00;5059338;27;20127;-67
2022/11/17 09:25:14;;;;;;;15.25;7.70;;;;;;;5.52;93.18;99514.09;5068108;27;20415;-66
2022/11/17 09:27:41;;;;;;;11.30;5.32;;;;;;;5.46;92.95;99502.25;5069393;28;20044;-66
2022/11/17 09:30:08;;;;;;;15.23;7.70;;;;;;;5.46;93.62;99494.44;5060348;27;20527;-66
2022/11/17 09:32:35;;;;;;;13.82;6.70;;;;;;;5.36;95.47;99485.41;5077566;27;20040;-66
2022/11/17 09:35:05;;;;;;;21.08;7.55;;;;;;;5.46;95.75;99499.66;5070067;27;20499;-65
2022/11/17 09:37:32;;;;;;;11.98;6.70;;;;;;;5.28;96.60;99492.78;5059902;27;20054;-66
2022/11/17 09:39:59;;;;;;;17.23;8.05;;;;;;;5.44;97.46;99490.22;5092872;27;20055;-66
2022/11/17 09:42:27;;;;;;;13.70;8.02;;;;;;;5.31;96.79;99496.06;5069488;28;20071;-66
2022/11/17 09:44:57;;;;;;;13.93;7.80;;;;;;;5.45;97.45;99477.16;5058834;28;20518;-66
2022/11/17 09:47:33;;;;;;;11.45;7.45;;;;;;;5.33;97.14;99444.81;5065556;27;20503;-65
2022/11/17 09:50:05;;;;;;;10.38;5.65;;;;;;;5.14;99.59;99482.19;5057798;27;20051;-65
2022/11/17 09:52:39;;;;;;;15.93;7.03;;;;;;;5.24;98.88;99486.91;5067486;27;20055;-65
2022/11/17 09:55:24;;;;;;;16.40;7.88;;;;;;;5.20;99.77;99476.72;5056919;28;20051;-66
2022/11/17 09:57:58;;;;;;;13.90;7.18;;;;;;;5.37;98.65;99474.94;5054392;28;20048;-66
2022/11/17 10:00:25;;;;;;;11.02;5.53;;;;;;;5.33;98.55;99480.38;5060204;28;20076;-66
2022/11/17 10:02:54;;;;;;;15.07;7.20;;;;;;;5.26;98.02;99479.00;5057835;27;20530;-66
2022/11/17 10:05:28;;;;;;;11.15;6.63;;;;;;;5.05;100.00;99477.47;5067551;27;20048;-66
2022/11/17 10:07:58;;;;;;;13.73;7.10;;;;;;;5.37;99.68;99468.91;5060027;27;20449;-66
2022/11/17 10:10:34;;;;;;;12.90;7.55;;;;;;;5.23;99.23;99469.59;5067123;27;20052;-65
2022/11/17 10:13:04;;;;;;;8.48;4.60;;;;;;;5.24;99.74;99468.69;5070055;27;20048;-65
2022/11/17 10:15:41;;;;;;;10.35;6.18;;;;;;;5.22;100.00;99464.47;5058346;27;20048;-66
2022/11/17 10:18:12;;;;;;;9.90;6.00;;;;;;;5.23;99.90;99463.56;5048652;28;20044;-65
2022/11/17 10:20:40;;;;;;;8.65;5.13;;;;;;;5.45;99.49;99452.94;5057947;27;20051;-66
2022/11/17 10:23:07;;;;;;;10.40;6.18;;;;;;;5.43;99.56;99447.81;5067385;27;20488;-67
2022/11/17 10:25:38;;;;;;;11.23;5.25;;;;;;;5.39;99.86;99448.91;5067999;27;20059;-65
2022/11/17 10:28:06;;;;;;;12.13;6.75;;;;;;;5.20;99.90;99448.13;5066114;28;20053;-67
2022/11/17 10:30:34;;;;;;;8.30;4.95;;;;;;;5.22;100.00;99444.53;5076417;27;20052;-67
2022/11/17 10:33:02;;;;;;;13.00;6.53;;;;;;;5.18;100.00;99442.16;5069002;27;20071;-66
2022/11/17 10:35:30;;;;;;;10.25;4.40;;;;;;;5.29;100.00;99439.84;5068129;27;20514;-66
2022/11/17 10:38:00;;;;;;;11.98;6.15;;;;;;;5.20;100.00;99438.59;5067435;27;20550;-66
2022/11/17 10:40:29;;;;;;;9.00;5.35;;;;;;;5.42;100.00;99429.69;5066918;27;20492;-66
2022/11/17 10:43:02;;;;;;;9.65;5.15;;;;;;;5.28;100.00;99433.00;5067763;27;20047;-66
2022/11/17 10:45:29;;;;;;;10.40;6.28;;;;;;;5.22;100.00;99434.13;5067817;28;20522;-66
2022/11/17 10:48:18;;;;;;;8.23;4.97;;;;;;;5.40;100.00;99428.00;5045986;28;20048;-66
2022/11/17 10:50:52;;;;;;;11.77;6.43;;;;;;;5.36;100.00;99423.88;5039018;28;20053;-66
2022/11/17 10:53:30;;;;;;;9.77;5.13;;;;;;;5.23;100.00;99417.63;5065164;28;20126;-66
2022/11/17 10:56:02;;;;;;;10.75;6.20;;;;;;;5.46;100.00;99418.22;5066803;27;20408;-67
2022/11/17 10:58:30;;;;;;;11.43;5.00;;;;;;;5.63;99.71;99415.56;5057982;28;20496;-66
2022/11/17 11:00:58;;;;;;;9.13;5.15;;;;;;;5.59;99.54;99420.09;5073780;27;20051;-67
2022/11/17 11:03:28;;;;;;;12.43;5.63;;;;;;;5.36;100.00;99417.84;5069369;28;20054;-66
2022/11/17 11:05:59;;;;;;;9.23;4.60;;;;;;;5.27;100.00;99405.31;5051473;28;20559;-65
2022/11/17 11:08:34;;;;;;;10.15;6.18;;;;;;;5.25;100.00;99405.38;5052377;28;20063;-64
2022/11/17 11:11:07;;;;;;;13.30;6.13;;;;;;;5.28;100.00;99404.41;5035463;28;20044;-64
2022/11/17 11:13:36;;;;;;;;;;;;;;;5.40;100.00;99404.59;5034369;28;20501;-65
2022/11/17 11:16:03;;;;;;;10.45;5.65;;;;;;;5.43;100.00;99392.38;5043005;28;19920;-66
2022/11/17 11:18:31;;;;;;;9.43;5.78;;;;;;;5.29;100.00;99382.69;5048206;28;20037;-65
2022/11/17 11:21:07;;;;;;;11.52;6.00;;;;;;;5.32;100.00;99390.34;5045492;28;20048;-66
2022/11/17 11:23:48;;;;;;;10.40;5.90;;;;;;;5.41;100.00;99376.84;5047409;28;20165;-66
2022/11/17 11:26:43;;;;;;;14.40;6.82;;;;;;;5.17;100.00;99360.78;5041177;28;20052;-66
2022/11/17 11:29:20;;;;;;;12.00;6.03;;;;;;;5.30;100.00;99366.19;5057819;27;20039;-65
2022/11/17 11:32:00;;;;;;;11.60;5.55;;;;;;;5.35;100.00;99366.78;5050238;27;20543;-65
2022/11/17 11:34:48;;;;;;;14.23;6.30;;;;;;;5.47;100.00;99358.31;5049892;28;20048;-66
2022/11/17 11:37:16;;;;;;;11.65;5.60;;;;;;;5.36;100.00;99358.91;5046017;28;20055;-66
2022/11/17 11:39:54;;;;;;;10.15;5.82;;;;;;;5.52;100.00;99342.50;5082617;28;20047;-66
2022/11/17 11:42:44;;;;;;;9.50;4.93;;;;;;;5.41;100.00;99327.47;5078392;28;20044;-66
2022/11/17 11:45:31;;;;;;;8.10;4.30;;;;;;;5.21;100.00;99345.88;5075602;28;20052;-67
2022/11/17 11:48:10;;;;;;;7.20;4.78;;;;;;;5.27;100.00;99340.34;5064190;28;20395;-66
2022/11/17 11:50:42;;;;;;;9.63;5.82;;;;;;;5.32;100.00;99331.38;5052860;28;20702;-67
2022/11/17 11:53:15;;;;;;;9.80;5.30;;;;;;;5.31;100.00;99327.13;5062852;27;20506;-67
2022/11/17 11:55:46;;;;;;;14.02;6.32;;;;;;;5.37;100.00;99338.94;5066502;27;20505;-66
2022/11/17 11:58:18;;;;;;;10.35;4.35;;;;;;;5.39;100.00;99344.91;5055030;27;20048;-66
2022/11/17 12:00:45;;;;;;;12.15;6.00;;;;;;;5.61;100.00;99327.25;5076879;27;20055;-66
2022/11/17 12:03:20;;;;;;;12.85;6.82;;;;;;;5.63;100.00;99330.59;5087531;27;20043;-67